Time;durP1;ratioP1;P1;durP2;ratioP2;P2;SDS_P1;SDS_P2;PMS_P1;PMS_P2;Temp;Humidity;BMP_temperature;BMP_pressure;BME280_temperature;BME280_humidity;BME280_pressure;Samples;Min_cycle;Max_cycle;Signal;HPM_P1;HPM_P2
2022/11/25 00:07:55;;;;;;;0.70;0.50;;;;;;;16.45;95.58;100663.84;20745101;28;20049;-89
2022/11/25 00:17:56;;;;;;;0.52;0.40;;;;;;;16.08;95.38;100603.38;20756501;28;20049;-89
2022/11/25 00:27:58;;;;;;;1.00;0.40;;;;;;;16.46;95.42;100650.25;20768091;28;20052;-90
2022/11/25 00:37:59;;;;;;;1.45;0.50;;;;;;;16.45;95.23;100645.03;20772158;28;20057;-89
2022/11/25 00:48:01;;;;;;;0.70;0.40;;;;;;;16.15;95.01;100592.97;20764047;28;20071;-90
2022/11/25 00:58:02;;;;;;;0.93;0.50;;;;;;;16.21;94.90;100603.19;20775751;28;20056;-90
2022/11/25 01:08:04;;;;;;;1.02;0.50;;;;;;;16.44;94.95;100638.81;20800003;28;20053;-88
2022/11/25 01:18:05;;;;;;;0.60;0.50;;;;;;;16.44;94.92;100635.28;20770796;28;20441;-89
2022/11/25 01:28:06;;;;;;;0.70;0.52;;;;;;;16.45;94.61;100634.28;20758354;28;20073;-90
2022/11/25 01:38:08;;;;;;;1.20;0.60;;;;;;;16.45;94.65;100636.97;20761646;28;20450;-89
2022/11/25 01:48:26;;;;;;;0.85;0.65;;;;;;;16.07;94.54;100577.50;20786460;28;20052;-89
2022/11/25 01:58:29;;;;;;;0.80;0.50;;;;;;;16.06;94.41;100586.56;20771109;28;20053;-89
2022/11/25 02:08:32;;;;;;;1.13;0.88;;;;;;;16.42;94.24;100639.94;20773837;28;20053;-90
2022/11/25 02:18:33;;;;;;;0.90;0.50;;;;;;;16.44;94.20;100630.75;20767761;28;20046;-90
2022/11/25 02:28:35;;;;;;;0.50;0.40;;;;;;;16.44;94.22;100627.22;20769970;28;20049;-89
2022/11/25 02:38:38;;;;;;;1.63;0.50;;;;;;;16.44;94.05;100619.16;20716332;28;20056;-89
2022/11/25 02:48:42;;;;;;;2.07;0.50;;;;;;;16.44;93.98;100616.47;20745727;28;20144;-90
2022/11/25 02:59:04;;;;;;;1.13;0.57;;;;;;;16.33;93.78;100594.06;20741450;28;20045;-90
2022/11/25 03:09:05;;;;;;;1.17;0.60;;;;;;;16.43;93.81;100625.53;20731802;28;20380;-89
2022/11/25 03:19:11;;;;;;;0.55;0.43;;;;;;;16.31;93.67;100617.50;20764238;28;20042;-89
2022/11/25 03:29:13;;;;;;;0.63;0.40;;;;;;;16.43;93.66;100631.72;20748441;28;20045;-89
2022/11/25 03:39:15;;;;;;;1.25;0.47;;;;;;;16.44;93.45;100627.22;20739780;28;20056;-89
2022/11/25 03:49:16;;;;;;;0.95;0.50;;;;;;;16.43;93.36;100620.16;20719874;28;20077;-90
2022/11/25 03:59:18;;;;;;;0.98;0.65;;;;;;;16.20;93.22;100598.78;20740409;28;20060;-90
2022/11/25 04:09:20;;;;;;;0.80;0.47;;;;;;;16.43;93.20;100630.88;20752855;28;20453;-89
2022/11/25 04:19:22;;;;;;;0.88;0.63;;;;;;;16.43;93.25;100639.78;20750700;28;20049;-89
2022/11/25 04:29:23;;;;;;;0.77;0.43;;;;;;;16.42;93.15;100643.47;20752128;28;20049;-89
2022/11/25 04:39:26;;;;;;;1.30;0.50;;;;;;;16.20;93.04;100614.91;20720493;28;20134;-89
2022/11/25 04:49:32;;;;;;;0.50;0.30;;;;;;;16.42;93.05;100656.06;20757519;28;20049;-89
2022/11/25 04:59:40;;;;;;;0.75;0.40;;;;;;;16.42;92.79;100662.25;20761148;28;20076;-89
2022/11/25 05:09:45;;;;;;;1.48;0.57;;;;;;;16.42;92.77;100672.19;20746496;28;20046;-90
2022/11/25 05:19:55;;;;;;;1.02;0.52;;;;;;;16.42;92.81;100677.56;20729598;28;20069;-90
2022/11/25 05:29:57;;;;;;;1.00;0.52;;;;;;;16.42;92.72;100674.88;20744237;28;20053;-90
2022/11/25 05:39:58;;;;;;;0.90;0.70;;;;;;;16.42;92.46;100693.69;20779618;28;20156;-89
2022/11/25 05:50:18;;;;;;;1.95;0.50;;;;;;;16.41;92.47;100708.09;20805554;28;20490;-89
2022/11/25 06:00:36;;;;;;;1.15;0.63;;;;;;;16.04;92.28;100639.53;20797365;28;20091;-89
2022/11/25 06:10:43;;;;;;;0.88;0.40;;;;;;;16.42;92.26;100723.22;20779009;28;20053;-89
2022/11/25 06:20:45;;;;;;;1.73;0.60;;;;;;;16.41;92.25;100719.69;20802783;28;20053;-89
2022/11/25 06:30:46;;;;;;;0.82;0.60;;;;;;;15.99;92.11;100666.78;20729843;28;20045;-89
2022/11/25 06:41:03;;;;;;;0.98;0.47;;;;;;;16.09;91.96;100691.88;20782471;28;20070;-89
2022/11/25 06:51:07;;;;;;;0.75;0.52;;;;;;;16.42;91.99;100745.56;20724898;28;20049;-89
2022/11/25 07:01:20;;;;;;;1.02;0.77;;;;;;;16.21;91.79;100754.47;20709603;28;20495;-89
2022/11/25 07:11:30;;;;;;;2.05;0.65;;;;;;;16.15;91.65;100751.44;20711861;28;20046;-89
2022/11/25 07:21:32;;;;;;;1.20;0.50;;;;;;;16.40;91.72;100795.88;20741197;28;20053;-90
2022/11/25 07:31:36;;;;;;;0.80;0.50;;;;;;;16.44;91.68;100799.19;20745300;28;20148;-92
2022/11/25 07:41:40;;;;;;;0.87;0.50;;;;;;;16.42;91.38;100809.22;20781025;28;20484;-92
2022/11/25 07:51:53;;;;;;;0.80;0.50;;;;;;;16.00;91.15;100751.75;20792995;28;20062;-93
2022/11/25 08:01:55;;;;;;;1.35;0.70;;;;;;;16.60;90.67;100841.75;20766859;28;20045;-92
2022/11/25 08:11:57;;;;;;;0.60;0.28;;;;;;;16.40;90.44;100813.84;20771783;28;20045;-92
2022/11/25 08:21:58;;;;;;;0.88;0.50;;;;;;;16.66;90.22;100870.78;20783491;28;20085;-92
2022/11/25 08:32:00;;;;;;;1.10;0.60;;;;;;;16.68;89.78;100883.09;20769055;28;20049;-87
2022/11/25 08:42:03;;;;;;;0.90;0.50;;;;;;;16.70;89.66;100892.88;20790690;28;20042;-91
2022/11/25 08:52:05;;;;;;;0.60;0.40;;;;;;;16.71;89.45;100887.38;20768878;28;20502;-90
2022/11/25 09:02:08;;;;;;;0.90;0.40;;;;;;;16.73;89.28;100911.44;20791161;28;20045;-92
2022/11/25 09:12:09;;;;;;;1.17;0.40;;;;;;;16.63;89.04;100912.22;20778722;28;20060;-93
2022/11/25 09:22:11;;;;;;;0.70;0.40;;;;;;;16.73;88.87;100928.44;20791040;28;20050;-93
2022/11/25 09:32:13;;;;;;;0.88;0.30;;;;;;;16.76;88.77;100949.69;20792889;28;20521;-94
2022/11/25 09:52:50;;;;;;;0.73;0.32;;;;;;;16.77;88.59;100977.41;20771886;28;20050;-87
2022/11/25 10:02:55;;;;;;;0.63;0.43;;;;;;;16.77;88.37;100988.16;20762295;28;20060;-92
2022/11/25 10:12:58;;;;;;;1.00;0.30;;;;;;;16.78;88.37;100997.94;20768402;28;20203;-90
2022/11/25 10:23:04;;;;;;;0.75;0.30;;;;;;;16.78;88.26;101009.56;20750147;28;20048;-92
2022/11/25 10:33:24;;;;;;;0.30;0.30;;;;;;;16.79;88.04;101022.00;20772501;28;20521;-89
2022/11/25 10:43:26;;;;;;;0.47;0.40;;;;;;;16.79;87.94;101031.91;20755298;28;20525;-90
2022/11/25 10:53:33;;;;;;;0.98;0.50;;;;;;;16.80;88.16;101026.41;20749282;28;20045;-89
2022/11/25 11:03:35;;;;;;;0.85;0.50;;;;;;;16.80;87.54;101050.59;20741481;28;20136;-87
2022/11/25 11:13:36;;;;;;;2.65;0.60;;;;;;;16.71;87.59;101050.50;20742763;28;20083;-88
2022/11/25 11:23:49;;;;;;;1.85;0.93;;;;;;;16.67;87.52;101048.06;20757601;28;20037;-88
2022/11/25 11:34:03;;;;;;;1.88;0.80;;;;;;;16.77;87.40;101074.19;20731920;28;20650;-89
2022/11/25 11:44:11;;;;;;;1.88;0.80;;;;;;;16.67;87.43;101077.63;20751489;28;20056;-89
2022/11/25 11:54:32;;;;;;;6.88;2.40;;;;;;;16.21;88.76;100995.34;20747711;28;20077;-92
2022/11/25 12:04:44;;;;;;;5.22;1.80;;;;;;;16.80;88.24;101095.47;20741562;28;20121;-93
2022/11/25 12:14:50;;;;;;;5.57;2.08;;;;;;;16.83;88.09;101124.81;20740367;28;20056;-91
2022/11/25 12:24:51;;;;;;;4.53;1.85;;;;;;;16.77;88.19;101139.59;20761827;28;20056;-93
2022/11/25 12:35:08;;;;;;;3.45;1.50;;;;;;;16.78;89.56;101153.88;20786696;28;20048;-93
2022/11/25 12:45:11;;;;;;;3.03;1.30;;;;;;;16.87;88.93;101166.59;20756723;28;20521;-90
2022/11/25 12:55:23;;;;;;;4.35;1.40;;;;;;;16.75;88.37;101162.19;20758329;28;20128;-91
2022/11/25 13:05:34;;;;;;;4.65;1.88;;;;;;;16.78;88.38;101176.25;20768787;28;20063;-91
2022/11/25 13:15:44;;;;;;;3.67;1.60;;;;;;;16.73;88.59;101177.59;20767731;28;20134;-92
2022/11/25 13:25:49;;;;;;;5.22;1.40;;;;;;;16.70;88.68;101199.34;20735793;28;20053;-91
2022/11/25 13:35:54;;;;;;;2.90;1.25;;;;;;;16.67;88.65;101211.19;20746119;28;20060;-86
2022/11/25 13:45:56;;;;;;;4.63;1.70;;;;;;;16.34;88.79;101159.09;20759142;28;20056;-92
2022/11/25 13:56:14;;;;;;;3.33;1.35;;;;;;;16.62;88.88;101232.22;20736800;28;20061;-92
2022/11/25 14:06:35;;;;;;;2.85;1.33;;;;;;;16.59;89.07;101238.66;20750631;28;20056;-88
2022/11/25 14:17:01;;;;;;;3.47;1.48;;;;;;;16.60;89.04;101261.06;20761772;28;20394;-88
2022/11/25 14:27:04;;;;;;;2.70;1.30;;;;;;;16.36;88.92;101233.25;20753549;28;20920;-88
2022/11/25 14:37:13;;;;;;;3.15;1.10;;;;;;;16.56;89.01;101284.59;20744779;28;20053;-87
2022/11/25 14:47:23;;;;;;;3.22;1.17;;;;;;;16.49;88.94;101297.66;20733697;28;20501;-88
2022/11/25 14:57:27;;;;;;;2.75;1.10;;;;;;;16.56;89.62;101324.06;20758619;28;20049;-90
2022/11/25 15:07:29;;;;;;;3.03;1.30;;;;;;;16.29;90.19;101271.47;20735146;28;20042;-86
2022/11/25 15:17:34;;;;;;;3.30;1.38;;;;;;;16.68;90.20;101360.78;20752762;28;20116;-86
2022/11/25 15:27:43;;;;;;;3.33;1.30;;;;;;;16.64;90.44;101367.34;20723905;28;20068;-86
2022/11/25 15:37:45;;;;;;;3.63;1.02;;;;;;;16.47;90.76;101361.41;20741141;28;20055;-86
2022/11/25 15:47:46;;;;;;;3.75;1.20;;;;;;;16.38;90.48;101370.16;20801501;28;20590;-95
2022/11/25 15:57:50;;;;;;;4.00;1.70;;;;;;;16.76;91.55;101422.00;20790037;28;20088;-95
2022/11/25 16:07:53;;;;;;;4.97;1.93;;;;;;;16.81;91.68;101441.38;20801849;28;20053;-88
2022/11/25 16:17:54;;;;;;;3.20;1.38;;;;;;;16.77;91.32;101466.75;20790048;28;20048;-88
2022/11/25 16:28:23;;;;;;;5.05;1.83;;;;;;;16.61;91.38;101473.28;20766153;28;20538;-88
2022/11/25 16:38:25;;;;;;;3.15;1.15;;;;;;;16.63;91.67;101492.84;20764344;28;20468;-87
2022/11/25 16:48:27;;;;;;;3.00;1.60;;;;;;;16.31;91.86;101461.13;20766701;28;20053;-87
2022/11/25 16:58:28;;;;;;;2.78;0.95;;;;;;;16.48;92.30;101520.84;20779945;28;20053;-87
2022/11/25 17:08:30;;;;;;;2.95;1.60;;;;;;;16.57;92.68;101539.00;20783269;28;20045;-88
2022/11/25 17:18:31;;;;;;;2.80;1.40;;;;;;;16.49;93.23;101554.81;20767544;28;20052;-87
2022/11/25 17:28:34;;;;;;;2.83;1.52;;;;;;;16.52;93.30;101576.09;20754449;28;20049;-87
2022/11/25 17:38:38;;;;;;;2.90;1.08;;;;;;;16.54;93.91;101595.66;20742301;28;20687;-89
2022/11/25 17:48:42;;;;;;;2.42;1.27;;;;;;;16.52;93.96;101617.25;20757183;28;20049;-87
2022/11/25 17:58:44;;;;;;;2.30;0.93;;;;;;;16.44;94.04;101632.22;20751976;28;20045;-86
2022/11/25 18:08:46;;;;;;;2.80;1.00;;;;;;;16.51;94.34;101657.69;20767480;28;20049;-86
2022/11/25 18:18:47;;;;;;;2.50;0.80;;;;;;;16.35;94.50;101650.72;20874544;28;20052;-86
2022/11/25 18:28:49;;;;;;;2.30;1.05;;;;;;;16.49;94.60;101683.84;20813535;28;20140;-86
2022/11/25 18:38:52;;;;;;;2.92;1.25;;;;;;;16.48;94.89;101703.63;20748095;28;20526;-85
2022/11/25 18:48:53;;;;;;;2.10;1.00;;;;;;;16.47;94.90;101724.25;20765289;28;20056;-86
2022/11/25 18:58:58;;;;;;;3.08;0.93;;;;;;;16.20;95.07;101702.84;20756338;28;20119;-86
2022/11/25 19:09:02;;;;;;;2.27;1.07;;;;;;;16.11;95.18;101685.50;20783124;28;20050;-86
2022/11/25 19:19:03;;;;;;;2.78;0.93;;;;;;;16.26;95.10;101723.91;20795592;28;20044;-86
2022/11/25 19:29:10;;;;;;;2.25;1.13;;;;;;;16.45;95.22;101787.16;20806759;28;20053;-86
2022/11/25 19:39:15;;;;;;;1.67;0.90;;;;;;;16.25;95.29;101751.72;20806640;28;20049;-86
2022/11/25 19:49:18;;;;;;;2.20;0.73;;;;;;;16.34;95.46;101791.41;20804863;28;20581;-86
2022/11/25 19:59:20;;;;;;;1.98;0.98;;;;;;;16.43;95.43;101819.50;20789049;28;20064;-86
2022/11/25 20:09:21;;;;;;;2.65;0.80;;;;;;;16.43;95.56;101837.47;20778374;28;20518;-86
2022/11/25 20:19:22;;;;;;;1.88;1.05;;;;;;;16.43;95.48;101846.38;20799237;28;20045;-86
2022/11/25 20:29:25;;;;;;;1.55;0.70;;;;;;;16.30;95.37;101830.19;20783965;28;20568;-86
2022/11/25 20:39:31;;;;;;;1.83;0.93;;;;;;;16.43;95.50;101864.34;20795885;28;20133;-86
2022/11/25 20:49:32;;;;;;;1.65;0.90;;;;;;;16.41;95.56;101871.63;20786713;28;20053;-86
2022/11/25 20:59:34;;;;;;;1.45;0.63;;;;;;;16.42;95.37;101893.03;20769787;28;20050;-86
2022/11/25 21:09:36;;;;;;;2.65;0.80;;;;;;;16.41;95.41;101901.22;20781245;28;20060;-86
2022/11/25 21:19:38;;;;;;;2.30;0.93;;;;;;;16.30;95.29;101889.31;20777135;28;20057;-86
2022/11/25 21:29:41;;;;;;;0.90;0.60;;;;;;;16.38;95.31;101919.25;20780938;28;20057;-86
2022/11/25 21:39:42;;;;;;;2.13;0.70;;;;;;;16.40;95.25;101943.34;20777415;28;20064;-86
2022/11/25 21:49:44;;;;;;;1.45;0.90;;;;;;;16.38;95.07;101956.88;20790601;28;20082;-86
2022/11/25 21:59:46;;;;;;;1.73;0.82;;;;;;;16.28;95.06;101950.34;20794533;28;20056;-86
2022/11/25 22:09:48;;;;;;;0.88;0.60;;;;;;;16.39;94.94;101973.84;20782025;28;20057;-86
2022/11/25 22:19:49;;;;;;;1.10;0.80;;;;;;;16.37;94.95;101986.53;20795368;28;20072;-86
2022/11/25 22:29:51;;;;;;;2.20;0.70;;;;;;;16.28;94.90;102008.63;20788731;28;20069;-86
2022/11/25 22:39:52;;;;;;;1.27;0.60;;;;;;;16.35;94.74;102013.53;20767681;28;20450;-85
2022/11/25 22:49:54;;;;;;;1.05;0.68;;;;;;;16.36;94.54;102023.31;20757288;28;22179;-86
2022/11/25 22:59:56;;;;;;;0.75;0.60;;;;;;;16.24;94.52;102011.53;20774300;28;20053;-86
2022/11/25 23:09:57;;;;;;;0.80;0.57;;;;;;;16.25;94.49;102025.78;20772592;28;20115;-86
2022/11/25 23:19:59;;;;;;;2.50;0.90;;;;;;;16.19;94.17;102016.31;20764844;28;20057;-86
2022/11/25 23:30:00;;;;;;;1.05;0.63;;;;;;;16.15;94.17;102016.59;20764387;28;20325;-86
2022/11/25 23:40:02;;;;;;;1.25;0.73;;;;;;;16.34;93.86;102061.97;20750970;28;20046;-86
2022/11/25 23:50:05;;;;;;;1.70;0.90;;;;;;;16.33;93.85;102071.84;20748802;28;20056;-86
